sensor_id;sensor_type;location;lat;lon;timestamp;P1;durP1;ratioP1;P2;durP2;ratioP2
51943;SDS011;37969;53.132;6.370;2022-10-16T00:01:05;7.53;;;2.47;;
51943;SDS011;37969;53.132;6.370;2022-10-16T00:03:31;15.13;;;2.70;;
51943;SDS011;37969;53.132;6.370;2022-10-16T00:05:58;7.32;;;2.50;;
51943;SDS011;37969;53.132;6.370;2022-10-16T00:08:25;13.63;;;2.67;;
51943;SDS011;37969;53.132;6.370;2022-10-16T00:10:51;8.32;;;2.50;;
51943;SDS011;37969;53.132;6.370;2022-10-16T00:13:17;9.23;;;2.25;;
51943;SDS011;37969;53.132;6.370;2022-10-16T00:15:45;11.43;;;2.28;;
51943;SDS011;37969;53.132;6.370;2022-10-16T00:18:11;11.38;;;2.70;;
51943;SDS011;37969;53.132;6.370;2022-10-16T00:20:39;8.98;;;2.35;;
51943;SDS011;37969;53.132;6.370;2022-10-16T00:23:05;12.75;;;2.50;;
51943;SDS011;37969;53.132;6.370;2022-10-16T00:25:31;8.27;;;2.10;;
51943;SDS011;37969;53.132;6.370;2022-10-16T00:27:58;8.95;;;2.60;;
51943;SDS011;37969;53.132;6.370;2022-10-16T00:30:25;7.93;;;2.42;;
51943;SDS011;37969;53.132;6.370;2022-10-16T00:32:52;10.15;;;2.38;;
51943;SDS011;37969;53.132;6.370;2022-10-16T00:35:18;6.53;;;2.55;;
51943;SDS011;37969;53.132;6.370;2022-10-16T00:37:45;13.43;;;2.13;;
51943;SDS011;37969;53.132;6.370;2022-10-16T00:40:11;5.82;;;1.90;;
51943;SDS011;37969;53.132;6.370;2022-10-16T00:42:37;6.85;;;2.08;;
51943;SDS011;37969;53.132;6.370;2022-10-16T00:45:04;6.60;;;1.90;;
51943;SDS011;37969;53.132;6.370;2022-10-16T00:47:32;10.35;;;2.58;;
51943;SDS011;37969;53.132;6.370;2022-10-16T00:50:02;11.57;;;2.30;;
51943;SDS011;37969;53.132;6.370;2022-10-16T00:52:30;8.23;;;2.10;;
51943;SDS011;37969;53.132;6.370;2022-10-16T00:54:56;11.02;;;2.22;;
51943;SDS011;37969;53.132;6.370;2022-10-16T00:57:23;7.45;;;2.22;;
51943;SDS011;37969;53.132;6.370;2022-10-16T00:59:50;10.15;;;2.10;;
51943;SDS011;37969;53.132;6.370;2022-10-16T01:02:16;5.93;;;1.90;;
51943;SDS011;37969;53.132;6.370;2022-10-16T01:04:45;9.95;;;2.05;;
51943;SDS011;37969;53.132;6.370;2022-10-16T01:07:16;7.72;;;1.70;;
51943;SDS011;37969;53.132;6.370;2022-10-16T01:09:52;10.30;;;1.85;;
51943;SDS011;37969;53.132;6.370;2022-10-16T01:12:34;8.93;;;2.33;;
51943;SDS011;37969;53.132;6.370;2022-10-16T01:17:35;6.55;;;1.83;;
51943;SDS011;37969;53.132;6.370;2022-10-16T01:20:13;9.38;;;2.10;;
51943;SDS011;37969;53.132;6.370;2022-10-16T01:22:59;7.30;;;1.95;;
51943;SDS011;37969;53.132;6.370;2022-10-16T01:28:12;8.15;;;1.90;;
51943;SDS011;37969;53.132;6.370;2022-10-16T01:30:40;10.02;;;1.73;;
51943;SDS011;37969;53.132;6.370;2022-10-16T01:33:10;6.07;;;1.65;;
51943;SDS011;37969;53.132;6.370;2022-10-16T01:35:41;8.57;;;2.25;;
51943;SDS011;37969;53.132;6.370;2022-10-16T01:40:39;6.95;;;2.15;;
51943;SDS011;37969;53.132;6.370;2022-10-16T01:43:08;7.47;;;2.10;;
51943;SDS011;37969;53.132;6.370;2022-10-16T01:45:36;6.18;;;1.92;;
51943;SDS011;37969;53.132;6.370;2022-10-16T01:48:02;6.80;;;2.10;;
51943;SDS011;37969;53.132;6.370;2022-10-16T01:50:33;5.75;;;1.73;;
51943;SDS011;37969;53.132;6.370;2022-10-16T01:53:01;5.20;;;1.90;;
51943;SDS011;37969;53.132;6.370;2022-10-16T01:55:30;7.47;;;2.20;;
51943;SDS011;37969;53.132;6.370;2022-10-16T01:57:58;7.72;;;1.98;;
51943;SDS011;37969;53.132;6.370;2022-10-16T02:00:27;5.22;;;2.20;;
51943;SDS011;37969;53.132;6.370;2022-10-16T02:02:53;6.13;;;2.00;;
51943;SDS011;37969;53.132;6.370;2022-10-16T02:05:23;8.48;;;2.00;;
51943;SDS011;37969;53.132;6.370;2022-10-16T02:07:51;7.40;;;2.10;;
51943;SDS011;37969;53.132;6.370;2022-10-16T02:10:17;8.70;;;2.30;;
51943;SDS011;37969;53.132;6.370;2022-10-16T02:12:45;5.25;;;2.20;;
51943;SDS011;37969;53.132;6.370;2022-10-16T02:15:13;12.10;;;2.20;;
51943;SDS011;37969;53.132;6.370;2022-10-16T02:17:39;9.55;;;2.00;;
51943;SDS011;37969;53.132;6.370;2022-10-16T02:20:05;9.00;;;2.10;;
51943;SDS011;37969;53.132;6.370;2022-10-16T02:22:32;5.50;;;1.80;;
51943;SDS011;37969;53.132;6.370;2022-10-16T02:25:03;4.32;;;2.05;;
51943;SDS011;37969;53.132;6.370;2022-10-16T02:30:08;10.30;;;2.00;;
51943;SDS011;37969;53.132;6.370;2022-10-16T02:32:39;6.25;;;2.00;;
51943;SDS011;37969;53.132;6.370;2022-10-16T02:35:06;4.97;;;1.80;;
51943;SDS011;37969;53.132;6.370;2022-10-16T02:37:32;4.60;;;2.30;;
51943;SDS011;37969;53.132;6.370;2022-10-16T02:39:59;7.63;;;2.10;;
51943;SDS011;37969;53.132;6.370;2022-10-16T02:42:27;3.88;;;1.67;;
51943;SDS011;37969;53.132;6.370;2022-10-16T02:44:53;7.38;;;2.00;;
51943;SDS011;37969;53.132;6.370;2022-10-16T02:47:20;3.40;;;2.05;;
51943;SDS011;37969;53.132;6.370;2022-10-16T02:49:46;6.82;;;2.35;;
51943;SDS011;37969;53.132;6.370;2022-10-16T02:52:12;7.38;;;1.98;;
51943;SDS011;37969;53.132;6.370;2022-10-16T02:54:38;3.17;;;1.92;;
51943;SDS011;37969;53.132;6.370;2022-10-16T02:57:04;3.40;;;1.80;;
51943;SDS011;37969;53.132;6.370;2022-10-16T02:59:30;6.75;;;1.90;;
51943;SDS011;37969;53.132;6.370;2022-10-16T03:01:56;4.07;;;1.88;;
51943;SDS011;37969;53.132;6.370;2022-10-16T03:04:22;8.27;;;1.98;;
51943;SDS011;37969;53.132;6.370;2022-10-16T03:06:48;5.70;;;1.70;;
51943;SDS011;37969;53.132;6.370;2022-10-16T03:09:15;4.90;;;1.80;;
51943;SDS011;37969;53.132;6.370;2022-10-16T03:11:41;4.63;;;1.80;;
51943;SDS011;37969;53.132;6.370;2022-10-16T03:14:07;3.88;;;1.80;;
51943;SDS011;37969;53.132;6.370;2022-10-16T03:16:33;7.05;;;1.95;;
51943;SDS011;37969;53.132;6.370;2022-10-16T03:18:59;3.78;;;2.25;;
51943;SDS011;37969;53.132;6.370;2022-10-16T03:21:25;4.15;;;2.08;;
51943;SDS011;37969;53.132;6.370;2022-10-16T03:23:51;3.80;;;1.63;;
51943;SDS011;37969;53.132;6.370;2022-10-16T03:26:18;5.55;;;1.80;;
51943;SDS011;37969;53.132;6.370;2022-10-16T03:28:44;5.13;;;1.60;;
51943;SDS011;37969;53.132;6.370;2022-10-16T03:31:10;4.57;;;1.80;;
51943;SDS011;37969;53.132;6.370;2022-10-16T03:33:36;3.78;;;1.95;;
51943;SDS011;37969;53.132;6.370;2022-10-16T03:36:02;8.25;;;2.38;;
51943;SDS011;37969;53.132;6.370;2022-10-16T03:38:28;5.35;;;2.33;;
51943;SDS011;37969;53.132;6.370;2022-10-16T03:40:54;6.15;;;1.70;;
51943;SDS011;37969;53.132;6.370;2022-10-16T03:43:21;10.52;;;2.10;;
51943;SDS011;37969;53.132;6.370;2022-10-16T03:45:47;5.10;;;2.08;;
51943;SDS011;37969;53.132;6.370;2022-10-16T03:48:13;3.03;;;1.80;;
51943;SDS011;37969;53.132;6.370;2022-10-16T03:50:39;5.90;;;2.05;;
51943;SDS011;37969;53.132;6.370;2022-10-16T03:53:05;3.85;;;1.80;;
51943;SDS011;37969;53.132;6.370;2022-10-16T03:55:31;6.40;;;1.83;;
51943;SDS011;37969;53.132;6.370;2022-10-16T03:57:58;6.68;;;1.95;;
51943;SDS011;37969;53.132;6.370;2022-10-16T04:00:24;3.95;;;1.80;;
51943;SDS011;37969;53.132;6.370;2022-10-16T04:02:50;6.25;;;2.00;;
51943;SDS011;37969;53.132;6.370;2022-10-16T04:05:16;3.00;;;2.00;;
51943;SDS011;37969;53.132;6.370;2022-10-16T04:07:42;4.15;;;1.90;;
51943;SDS011;37969;53.132;6.370;2022-10-16T04:10:08;3.42;;;1.98;;
51943;SDS011;37969;53.132;6.370;2022-10-16T04:12:35;3.38;;;2.10;;
51943;SDS011;37969;53.132;6.370;2022-10-16T04:15:01;4.15;;;1.95;;
51943;SDS011;37969;53.132;6.370;2022-10-16T04:17:28;3.90;;;2.00;;
51943;SDS011;37969;53.132;6.370;2022-10-16T04:19:54;7.40;;;2.05;;
51943;SDS011;37969;53.132;6.370;2022-10-16T04:22:20;4.63;;;2.17;;
51943;SDS011;37969;53.132;6.370;2022-10-16T04:24:46;5.28;;;2.42;;
51943;SDS011;37969;53.132;6.370;2022-10-16T04:27:12;3.38;;;2.20;;
51943;SDS011;37969;53.132;6.370;2022-10-16T04:29:38;6.72;;;2.13;;
51943;SDS011;37969;53.132;6.370;2022-10-16T04:32:04;4.47;;;2.15;;
51943;SDS011;37969;53.132;6.370;2022-10-16T04:34:30;6.35;;;2.58;;
51943;SDS011;37969;53.132;6.370;2022-10-16T04:36:57;3.40;;;2.30;;
51943;SDS011;37969;53.132;6.370;2022-10-16T04:39:23;7.75;;;2.42;;
51943;SDS011;37969;53.132;6.370;2022-10-16T04:41:49;7.45;;;2.35;;
51943;SDS011;37969;53.132;6.370;2022-10-16T04:44:15;6.22;;;2.95;;
51943;SDS011;37969;53.132;6.370;2022-10-16T04:46:41;5.85;;;1.95;;
51943;SDS011;37969;53.132;6.370;2022-10-16T04:49:09;6.63;;;2.47;;
51943;SDS011;37969;53.132;6.370;2022-10-16T04:51:35;7.50;;;2.65;;
51943;SDS011;37969;53.132;6.370;2022-10-16T04:54:01;7.82;;;2.83;;
51943;SDS011;37969;53.132;6.370;2022-10-16T04:56:27;3.75;;;2.60;;
51943;SDS011;37969;53.132;6.370;2022-10-16T04:58:53;8.98;;;3.03;;
51943;SDS011;37969;53.132;6.370;2022-10-16T05:01:19;6.70;;;2.70;;
51943;SDS011;37969;53.132;6.370;2022-10-16T05:03:46;5.53;;;2.88;;
51943;SDS011;37969;53.132;6.370;2022-10-16T05:06:12;5.47;;;2.67;;
51943;SDS011;37969;53.132;6.370;2022-10-16T05:08:38;5.93;;;2.95;;
51943;SDS011;37969;53.132;6.370;2022-10-16T05:11:04;4.03;;;2.60;;
51943;SDS011;37969;53.132;6.370;2022-10-16T05:13:30;5.55;;;2.60;;
51943;SDS011;37969;53.132;6.370;2022-10-16T05:15:56;8.32;;;2.70;;
51943;SDS011;37969;53.132;6.370;2022-10-16T05:18:22;4.72;;;3.03;;
51943;SDS011;37969;53.132;6.370;2022-10-16T05:20:49;7.50;;;3.00;;
51943;SDS011;37969;53.132;6.370;2022-10-16T05:23:15;6.45;;;2.70;;
51943;SDS011;37969;53.132;6.370;2022-10-16T05:25:41;5.45;;;2.85;;
51943;SDS011;37969;53.132;6.370;2022-10-16T05:28:07;8.13;;;3.00;;
51943;SDS011;37969;53.132;6.370;2022-10-16T05:30:33;5.63;;;3.10;;
51943;SDS011;37969;53.132;6.370;2022-10-16T05:32:59;4.75;;;2.70;;
51943;SDS011;37969;53.132;6.370;2022-10-16T05:35:25;6.40;;;2.92;;
51943;SDS011;37969;53.132;6.370;2022-10-16T05:37:52;8.82;;;3.47;;
51943;SDS011;37969;53.132;6.370;2022-10-16T05:40:18;10.13;;;2.97;;
51943;SDS011;37969;53.132;6.370;2022-10-16T05:42:44;6.38;;;2.60;;
51943;SDS011;37969;53.132;6.370;2022-10-16T05:45:10;8.65;;;3.17;;
51943;SDS011;37969;53.132;6.370;2022-10-16T05:47:37;6.78;;;3.13;;
51943;SDS011;37969;53.132;6.370;2022-10-16T05:50:03;6.20;;;2.75;;
51943;SDS011;37969;53.132;6.370;2022-10-16T05:52:29;8.55;;;3.17;;
51943;SDS011;37969;53.132;6.370;2022-10-16T05:54:55;7.22;;;2.90;;
51943;SDS011;37969;53.132;6.370;2022-10-16T05:57:21;5.65;;;3.13;;
51943;SDS011;37969;53.132;6.370;2022-10-16T05:59:48;9.30;;;3.00;;
51943;SDS011;37969;53.132;6.370;2022-10-16T06:02:14;6.20;;;2.90;;
51943;SDS011;37969;53.132;6.370;2022-10-16T06:04:40;5.43;;;2.70;;
51943;SDS011;37969;53.132;6.370;2022-10-16T06:07:06;6.70;;;3.10;;
51943;SDS011;37969;53.132;6.370;2022-10-16T06:09:32;7.30;;;3.30;;
51943;SDS011;37969;53.132;6.370;2022-10-16T06:11:59;7.07;;;3.10;;
51943;SDS011;37969;53.132;6.370;2022-10-16T06:14:25;5.50;;;3.30;;
51943;SDS011;37969;53.132;6.370;2022-10-16T06:16:51;7.55;;;3.60;;
51943;SDS011;37969;53.132;6.370;2022-10-16T06:19:17;5.50;;;3.30;;
51943;SDS011;37969;53.132;6.370;2022-10-16T06:21:43;5.47;;;3.28;;
51943;SDS011;37969;53.132;6.370;2022-10-16T06:24:10;9.32;;;3.47;;
51943;SDS011;37969;53.132;6.370;2022-10-16T06:26:36;6.65;;;3.10;;
51943;SDS011;37969;53.132;6.370;2022-10-16T06:29:03;8.60;;;3.60;;
51943;SDS011;37969;53.132;6.370;2022-10-16T06:31:30;7.10;;;3.35;;
51943;SDS011;37969;53.132;6.370;2022-10-16T06:33:58;7.45;;;3.20;;
51943;SDS011;37969;53.132;6.370;2022-10-16T06:36:25;8.73;;;3.20;;
51943;SDS011;37969;53.132;6.370;2022-10-16T06:38:51;7.35;;;3.45;;
51943;SDS011;37969;53.132;6.370;2022-10-16T06:41:19;10.00;;;3.65;;
51943;SDS011;37969;53.132;6.370;2022-10-16T06:43:45;7.28;;;3.28;;
51943;SDS011;37969;53.132;6.370;2022-10-16T06:46:12;7.55;;;3.25;;
51943;SDS011;37969;53.132;6.370;2022-10-16T06:48:39;7.40;;;2.88;;
51943;SDS011;37969;53.132;6.370;2022-10-16T06:51:06;11.23;;;3.13;;
51943;SDS011;37969;53.132;6.370;2022-10-16T06:53:33;6.50;;;2.80;;
51943;SDS011;37969;53.132;6.370;2022-10-16T06:56:07;6.65;;;3.03;;
51943;SDS011;37969;53.132;6.370;2022-10-16T06:58:33;8.73;;;3.58;;
51943;SDS011;37969;53.132;6.370;2022-10-16T07:01:00;6.07;;;3.30;;
51943;SDS011;37969;53.132;6.370;2022-10-16T07:03:26;7.80;;;3.45;;
51943;SDS011;37969;53.132;6.370;2022-10-16T07:05:52;7.50;;;3.20;;
51943;SDS011;37969;53.132;6.370;2022-10-16T07:08:18;12.60;;;3.10;;
51943;SDS011;37969;53.132;6.370;2022-10-16T07:10:44;8.80;;;3.83;;
51943;SDS011;37969;53.132;6.370;2022-10-16T07:13:10;7.28;;;3.40;;
51943;SDS011;37969;53.132;6.370;2022-10-16T07:15:39;9.82;;;2.70;;
51943;SDS011;37969;53.132;6.370;2022-10-16T07:18:05;9.55;;;3.25;;
51943;SDS011;37969;53.132;6.370;2022-10-16T07:20:31;7.53;;;3.38;;
51943;SDS011;37969;53.132;6.370;2022-10-16T07:22:57;6.57;;;2.70;;
51943;SDS011;37969;53.132;6.370;2022-10-16T07:25:23;6.15;;;2.58;;
51943;SDS011;37969;53.132;6.370;2022-10-16T07:27:50;7.10;;;3.20;;
51943;SDS011;37969;53.132;6.370;2022-10-16T07:30:16;8.18;;;3.05;;
51943;SDS011;37969;53.132;6.370;2022-10-16T07:32:42;8.32;;;3.22;;
51943;SDS011;37969;53.132;6.370;2022-10-16T07:35:08;7.72;;;3.05;;
51943;SDS011;37969;53.132;6.370;2022-10-16T07:37:34;6.72;;;3.05;;
51943;SDS011;37969;53.132;6.370;2022-10-16T07:40:00;6.63;;;3.13;;
51943;SDS011;37969;53.132;6.370;2022-10-16T07:42:27;6.15;;;3.20;;
51943;SDS011;37969;53.132;6.370;2022-10-16T07:44:53;7.13;;;3.63;;
51943;SDS011;37969;53.132;6.370;2022-10-16T07:47:19;5.68;;;3.47;;
51943;SDS011;37969;53.132;6.370;2022-10-16T07:49:46;6.97;;;3.80;;
51943;SDS011;37969;53.132;6.370;2022-10-16T07:52:12;9.13;;;3.80;;
51943;SDS011;37969;53.132;6.370;2022-10-16T07:54:38;9.52;;;3.67;;
51943;SDS011;37969;53.132;6.370;2022-10-16T07:57:04;6.38;;;3.30;;
51943;SDS011;37969;53.132;6.370;2022-10-16T07:59:30;8.98;;;3.55;;
51943;SDS011;37969;53.132;6.370;2022-10-16T08:01:56;6.45;;;3.08;;
51943;SDS011;37969;53.132;6.370;2022-10-16T08:04:22;7.68;;;3.95;;
51943;SDS011;37969;53.132;6.370;2022-10-16T08:06:49;7.85;;;3.58;;
51943;SDS011;37969;53.132;6.370;2022-10-16T08:09:15;8.63;;;3.42;;
51943;SDS011;37969;53.132;6.370;2022-10-16T08:11:41;7.80;;;3.50;;
51943;SDS011;37969;53.132;6.370;2022-10-16T08:14:07;9.70;;;3.13;;
51943;SDS011;37969;53.132;6.370;2022-10-16T08:16:33;6.72;;;3.08;;
51943;SDS011;37969;53.132;6.370;2022-10-16T08:18:59;4.88;;;3.00;;
51943;SDS011;37969;53.132;6.370;2022-10-16T08:21:26;11.68;;;3.00;;
51943;SDS011;37969;53.132;6.370;2022-10-16T08:23:52;10.77;;;3.10;;
51943;SDS011;37969;53.132;6.370;2022-10-16T08:26:23;8.05;;;2.70;;
51943;SDS011;37969;53.132;6.370;2022-10-16T08:28:49;6.78;;;2.80;;
51943;SDS011;37969;53.132;6.370;2022-10-16T08:31:19;9.73;;;4.30;;
51943;SDS011;37969;53.132;6.370;2022-10-16T08:33:46;8.70;;;2.70;;
51943;SDS011;37969;53.132;6.370;2022-10-16T08:36:13;5.50;;;1.85;;
51943;SDS011;37969;53.132;6.370;2022-10-16T08:38:39;5.60;;;2.42;;
51943;SDS011;37969;53.132;6.370;2022-10-16T08:43:44;5.75;;;2.08;;
51943;SDS011;37969;53.132;6.370;2022-10-16T08:46:21;10.45;;;1.73;;
51943;SDS011;37969;53.132;6.370;2022-10-16T08:48:53;8.95;;;2.53;;
51943;SDS011;37969;53.132;6.370;2022-10-16T08:51:22;5.63;;;2.08;;
51943;SDS011;37969;53.132;6.370;2022-10-16T08:53:51;7.25;;;2.85;;
51943;SDS011;37969;53.132;6.370;2022-10-16T08:56:18;7.40;;;2.42;;
51943;SDS011;37969;53.132;6.370;2022-10-16T08:58:45;6.22;;;1.75;;
51943;SDS011;37969;53.132;6.370;2022-10-16T09:01:13;9.55;;;2.20;;
51943;SDS011;37969;53.132;6.370;2022-10-16T09:03:43;8.10;;;2.10;;
51943;SDS011;37969;53.132;6.370;2022-10-16T09:06:20;6.15;;;2.30;;
51943;SDS011;37969;53.132;6.370;2022-10-16T09:11:32;8.32;;;1.70;;
51943;SDS011;37969;53.132;6.370;2022-10-16T09:16:38;7.18;;;2.30;;
51943;SDS011;37969;53.132;6.370;2022-10-16T09:21:35;14.38;;;3.67;;
51943;SDS011;37969;53.132;6.370;2022-10-16T09:24:13;12.05;;;3.58;;
51943;SDS011;37969;53.132;6.370;2022-10-16T09:26:40;19.95;;;5.93;;
51943;SDS011;37969;53.132;6.370;2022-10-16T09:29:06;12.50;;;2.38;;
51943;SDS011;37969;53.132;6.370;2022-10-16T09:31:32;6.63;;;2.25;;
51943;SDS011;37969;53.132;6.370;2022-10-16T09:34:02;35.72;;;18.98;;
51943;SDS011;37969;53.132;6.370;2022-10-16T09:36:32;26.23;;;9.98;;
51943;SDS011;37969;53.132;6.370;2022-10-16T09:39:03;11.32;;;3.80;;
51943;SDS011;37969;53.132;6.370;2022-10-16T09:41:29;22.73;;;4.43;;
51943;SDS011;37969;53.132;6.370;2022-10-16T09:43:56;16.08;;;3.33;;
51943;SDS011;37969;53.132;6.370;2022-10-16T09:46:25;13.45;;;3.25;;
51943;SDS011;37969;53.132;6.370;2022-10-16T09:48:54;12.32;;;4.80;;
51943;SDS011;37969;53.132;6.370;2022-10-16T09:51:23;16.38;;;5.05;;
51943;SDS011;37969;53.132;6.370;2022-10-16T09:53:54;18.40;;;3.45;;
51943;SDS011;37969;53.132;6.370;2022-10-16T09:56:22;15.25;;;3.67;;
51943;SDS011;37969;53.132;6.370;2022-10-16T09:58:56;20.02;;;6.03;;
51943;SDS011;37969;53.132;6.370;2022-10-16T10:01:24;47.10;;;19.15;;
51943;SDS011;37969;53.132;6.370;2022-10-16T10:06:25;26.40;;;9.02;;
51943;SDS011;37969;53.132;6.370;2022-10-16T10:11:35;15.93;;;5.07;;
51943;SDS011;37969;53.132;6.370;2022-10-16T10:14:04;24.92;;;7.43;;
51943;SDS011;37969;53.132;6.370;2022-10-16T10:16:30;18.98;;;5.15;;
51943;SDS011;37969;53.132;6.370;2022-10-16T10:18:58;14.88;;;3.63;;
51943;SDS011;37969;53.132;6.370;2022-10-16T10:21:24;22.00;;;4.55;;
51943;SDS011;37969;53.132;6.370;2022-10-16T10:23:54;17.95;;;3.20;;
51943;SDS011;37969;53.132;6.370;2022-10-16T10:26:23;14.38;;;3.20;;
51943;SDS011;37969;53.132;6.370;2022-10-16T10:28:52;18.13;;;3.25;;
51943;SDS011;37969;53.132;6.370;2022-10-16T10:31:21;11.90;;;2.78;;
51943;SDS011;37969;53.132;6.370;2022-10-16T10:33:52;10.03;;;2.47;;
51943;SDS011;37969;53.132;6.370;2022-10-16T10:38:54;19.00;;;2.75;;
51943;SDS011;37969;53.132;6.370;2022-10-16T10:41:27;9.93;;;2.78;;
51943;SDS011;37969;53.132;6.370;2022-10-16T10:44:02;17.85;;;5.05;;
51943;SDS011;37969;53.132;6.370;2022-10-16T10:46:35;23.65;;;4.40;;
51943;SDS011;37969;53.132;6.370;2022-10-16T10:49:06;18.48;;;3.97;;
51943;SDS011;37969;53.132;6.370;2022-10-16T10:51:41;27.48;;;7.28;;
51943;SDS011;37969;53.132;6.370;2022-10-16T10:56:43;18.00;;;5.80;;
51943;SDS011;37969;53.132;6.370;2022-10-16T10:59:16;11.27;;;2.40;;
51943;SDS011;37969;53.132;6.370;2022-10-16T11:04:34;14.65;;;3.67;;
51943;SDS011;37969;53.132;6.370;2022-10-16T11:07:05;19.13;;;4.18;;
51943;SDS011;37969;53.132;6.370;2022-10-16T11:09:36;17.83;;;4.20;;
51943;SDS011;37969;53.132;6.370;2022-10-16T11:12:06;20.60;;;6.00;;
51943;SDS011;37969;53.132;6.370;2022-10-16T11:14:35;18.08;;;4.88;;
51943;SDS011;37969;53.132;6.370;2022-10-16T11:17:07;17.92;;;5.65;;
51943;SDS011;37969;53.132;6.370;2022-10-16T11:19:39;14.25;;;4.82;;
51943;SDS011;37969;53.132;6.370;2022-10-16T11:22:11;20.38;;;5.88;;
51943;SDS011;37969;53.132;6.370;2022-10-16T11:24:42;17.40;;;4.63;;
51943;SDS011;37969;53.132;6.370;2022-10-16T11:27:15;21.08;;;4.97;;
51943;SDS011;37969;53.132;6.370;2022-10-16T11:29:45;20.10;;;4.72;;
51943;SDS011;37969;53.132;6.370;2022-10-16T11:32:19;18.52;;;4.32;;
51943;SDS011;37969;53.132;6.370;2022-10-16T11:34:48;17.58;;;3.70;;
51943;SDS011;37969;53.132;6.370;2022-10-16T11:37:17;19.38;;;3.72;;
51943;SDS011;37969;53.132;6.370;2022-10-16T11:39:44;16.35;;;2.97;;
51943;SDS011;37969;53.132;6.370;2022-10-16T11:42:16;16.88;;;3.00;;
51943;SDS011;37969;53.132;6.370;2022-10-16T11:44:56;17.85;;;2.72;;
51943;SDS011;37969;53.132;6.370;2022-10-16T11:47:31;22.60;;;3.80;;
51943;SDS011;37969;53.132;6.370;2022-10-16T11:52:36;16.10;;;2.83;;
51943;SDS011;37969;53.132;6.370;2022-10-16T11:57:32;16.30;;;3.28;;
51943;SDS011;37969;53.132;6.370;2022-10-16T12:00:08;17.88;;;2.42;;
51943;SDS011;37969;53.132;6.370;2022-10-16T12:03:04;15.20;;;3.05;;
51943;SDS011;37969;53.132;6.370;2022-10-16T12:08:08;15.43;;;2.40;;
51943;SDS011;37969;53.132;6.370;2022-10-16T12:10:36;19.40;;;2.88;;
51943;SDS011;37969;53.132;6.370;2022-10-16T12:13:03;16.38;;;2.63;;
51943;SDS011;37969;53.132;6.370;2022-10-16T12:15:30;14.63;;;2.72;;
51943;SDS011;37969;53.132;6.370;2022-10-16T12:17:57;12.98;;;2.63;;
51943;SDS011;37969;53.132;6.370;2022-10-16T12:20:25;13.38;;;2.90;;
51943;SDS011;37969;53.132;6.370;2022-10-16T12:22:54;17.08;;;3.10;;
51943;SDS011;37969;53.132;6.370;2022-10-16T12:25:30;15.82;;;2.80;;
51943;SDS011;37969;53.132;6.370;2022-10-16T12:28:04;17.38;;;3.17;;
51943;SDS011;37969;53.132;6.370;2022-10-16T12:30:33;17.25;;;3.28;;
51943;SDS011;37969;53.132;6.370;2022-10-16T12:33:01;22.65;;;6.70;;
51943;SDS011;37969;53.132;6.370;2022-10-16T12:35:30;24.95;;;6.03;;
51943;SDS011;37969;53.132;6.370;2022-10-16T12:38:05;12.65;;;4.35;;
51943;SDS011;37969;53.132;6.370;2022-10-16T12:40:32;17.42;;;4.65;;
51943;SDS011;37969;53.132;6.370;2022-10-16T12:43:10;15.32;;;4.75;;
51943;SDS011;37969;53.132;6.370;2022-10-16T12:45:36;38.28;;;15.02;;
51943;SDS011;37969;53.132;6.370;2022-10-16T12:48:04;23.75;;;9.63;;
51943;SDS011;37969;53.132;6.370;2022-10-16T12:50:33;20.48;;;6.93;;
51943;SDS011;37969;53.132;6.370;2022-10-16T12:53:00;23.80;;;6.45;;
51943;SDS011;37969;53.132;6.370;2022-10-16T12:55:27;18.48;;;5.53;;
51943;SDS011;37969;53.132;6.370;2022-10-16T13:00:36;20.50;;;5.60;;
51943;SDS011;37969;53.132;6.370;2022-10-16T13:03:22;19.77;;;4.15;;
51943;SDS011;37969;53.132;6.370;2022-10-16T13:05:58;19.33;;;4.00;;
51943;SDS011;37969;53.132;6.370;2022-10-16T13:11:09;41.50;;;19.63;;
51943;SDS011;37969;53.132;6.370;2022-10-16T13:16:45;43.85;;;18.77;;
51943;SDS011;37969;53.132;6.370;2022-10-16T13:22:05;53.03;;;22.77;;
51943;SDS011;37969;53.132;6.370;2022-10-16T13:24:38;52.38;;;23.92;;
51943;SDS011;37969;53.132;6.370;2022-10-16T13:29:39;24.50;;;9.25;;
51943;SDS011;37969;53.132;6.370;2022-10-16T13:32:07;63.45;;;26.63;;
51943;SDS011;37969;53.132;6.370;2022-10-16T13:34:43;47.90;;;19.45;;
51943;SDS011;37969;53.132;6.370;2022-10-16T13:37:16;29.70;;;10.13;;
51943;SDS011;37969;53.132;6.370;2022-10-16T13:39:43;43.22;;;19.00;;
51943;SDS011;37969;53.132;6.370;2022-10-16T13:42:12;22.38;;;5.50;;
51943;SDS011;37969;53.132;6.370;2022-10-16T13:44:40;30.17;;;10.27;;
51943;SDS011;37969;53.132;6.370;2022-10-16T13:47:15;28.33;;;8.75;;
51943;SDS011;37969;53.132;6.370;2022-10-16T13:49:42;19.90;;;6.82;;
51943;SDS011;37969;53.132;6.370;2022-10-16T13:52:19;23.23;;;8.70;;
51943;SDS011;37969;53.132;6.370;2022-10-16T13:54:45;25.77;;;9.35;;
51943;SDS011;37969;53.132;6.370;2022-10-16T13:57:18;20.73;;;8.73;;
51943;SDS011;37969;53.132;6.370;2022-10-16T13:59:47;19.63;;;8.48;;
51943;SDS011;37969;53.132;6.370;2022-10-16T14:02:17;24.38;;;10.15;;
51943;SDS011;37969;53.132;6.370;2022-10-16T14:04:43;28.83;;;10.13;;
51943;SDS011;37969;53.132;6.370;2022-10-16T14:07:13;20.98;;;8.38;;
51943;SDS011;37969;53.132;6.370;2022-10-16T14:09:40;18.50;;;7.85;;
51943;SDS011;37969;53.132;6.370;2022-10-16T14:12:08;15.00;;;4.20;;
51943;SDS011;37969;53.132;6.370;2022-10-16T14:14:42;20.70;;;5.72;;
51943;SDS011;37969;53.132;6.370;2022-10-16T14:17:14;23.08;;;9.35;;
51943;SDS011;37969;53.132;6.370;2022-10-16T14:19:40;25.50;;;10.77;;
51943;SDS011;37969;53.132;6.370;2022-10-16T14:22:22;26.88;;;12.85;;
51943;SDS011;37969;53.132;6.370;2022-10-16T14:24:51;21.40;;;6.80;;
51943;SDS011;37969;53.132;6.370;2022-10-16T14:27:26;25.13;;;10.18;;
51943;SDS011;37969;53.132;6.370;2022-10-16T14:32:33;16.05;;;3.47;;
51943;SDS011;37969;53.132;6.370;2022-10-16T14:34:59;36.22;;;15.98;;
51943;SDS011;37969;53.132;6.370;2022-10-16T14:37:27;43.85;;;22.45;;
51943;SDS011;37969;53.132;6.370;2022-10-16T14:39:54;14.95;;;5.97;;
51943;SDS011;37969;53.132;6.370;2022-10-16T14:42:22;32.65;;;12.55;;
51943;SDS011;37969;53.132;6.370;2022-10-16T14:44:50;19.35;;;5.40;;
51943;SDS011;37969;53.132;6.370;2022-10-16T14:47:19;22.05;;;9.10;;
51943;SDS011;37969;53.132;6.370;2022-10-16T14:49:49;24.30;;;5.35;;
51943;SDS011;37969;53.132;6.370;2022-10-16T14:52:15;31.08;;;8.27;;
51943;SDS011;37969;53.132;6.370;2022-10-16T14:54:42;18.65;;;4.07;;
51943;SDS011;37969;53.132;6.370;2022-10-16T14:57:18;18.23;;;4.55;;
51943;SDS011;37969;53.132;6.370;2022-10-16T14:59:45;20.23;;;4.53;;
51943;SDS011;37969;53.132;6.370;2022-10-16T15:04:38;24.77;;;8.52;;
51943;SDS011;37969;53.132;6.370;2022-10-16T15:07:04;23.20;;;6.18;;
51943;SDS011;37969;53.132;6.370;2022-10-16T15:09:30;28.80;;;3.78;;
51943;SDS011;37969;53.132;6.370;2022-10-16T15:11:56;17.77;;;5.70;;
51943;SDS011;37969;53.132;6.370;2022-10-16T15:14:22;13.73;;;4.53;;
51943;SDS011;37969;53.132;6.370;2022-10-16T15:16:49;16.23;;;3.30;;
51943;SDS011;37969;53.132;6.370;2022-10-16T15:19:15;14.80;;;3.45;;
51943;SDS011;37969;53.132;6.370;2022-10-16T15:21:41;20.95;;;3.45;;
51943;SDS011;37969;53.132;6.370;2022-10-16T15:24:09;17.80;;;4.43;;
51943;SDS011;37969;53.132;6.370;2022-10-16T15:26:37;16.85;;;3.72;;
51943;SDS011;37969;53.132;6.370;2022-10-16T15:29:03;14.98;;;2.95;;
51943;SDS011;37969;53.132;6.370;2022-10-16T15:31:30;20.35;;;5.88;;
51943;SDS011;37969;53.132;6.370;2022-10-16T15:33:56;24.38;;;5.80;;
51943;SDS011;37969;53.132;6.370;2022-10-16T15:36:29;18.00;;;3.17;;
51943;SDS011;37969;53.132;6.370;2022-10-16T15:38:55;15.10;;;2.80;;
51943;SDS011;37969;53.132;6.370;2022-10-16T15:41:22;17.40;;;2.85;;
51943;SDS011;37969;53.132;6.370;2022-10-16T15:43:48;13.43;;;2.65;;
51943;SDS011;37969;53.132;6.370;2022-10-16T15:46:17;20.27;;;2.88;;